Date,TemperatureHighF,TemperatureAvgF,TemperatureLowF,DewpointHighF,DewpointAvgF,DewpointLowF,HumidityHigh,HumidityAvg,HumidityLow,PressureMaxIn,PressureMinIn,WindSpeedMaxMPH,WindSpeedAvgMPH,GustSpeedMaxMPH,PrecipitationSumIn
2013-3-27,40,32,36,21,3,-100,53,42,45,29.95,29.94,2,-142,0,0.00
2013-3-28,57,43,30,25,20,18,76,43,23,29.97,29.86,8,2,0,0.00
2013-3-29,62,48,28,34,25,21,82,45,24,30.01,29.82,5,1,0,0.00
2013-3-30,67,54,46,48,43,35,99,70,40,29.90,29.75,5,1,0,0.28
2013-3-31,70,58,49,61,52,44,99,81,53,29.76,29.54,6,2,0,0.41
2013-4-1,74,62,54,56,46,35,99,62,26,29.77,29.60,8,2,0,0.07
2013-4-2,65,53,38,38,32,26,87,49,24,30.00,29.77,5,2,0,0.00
2013-4-3,61,52,44,31,22,16,49,31,23,30.11,29.95,8,3,0,0.00
2013-4-4,50,41,37,39,33,21,99,77,37,30.09,29.77,9,4,0,1.25
2013-4-5,65,49,36,47,40,35,99,76,45,29.87,29.72,7,2,0,0.00
2013-4-6,69,55,40,42,36,32,87,53,29,30.06,29.87,8,2,0,0.00
2013-4-7,73,56,39,49,42,34,87,62,34,30.10,29.90,4,1,0,0.00
2013-4-8,79,67,54,55,53,50,97,64,40,29.97,29.86,5,2,0,0.00
2013-4-9,85,70,54,59,56,52,98,63,39,30.01,29.88,5,1,0,0.00
2013-4-10,86,73,61,61,58,56,94,64,39,29.92,29.76,4,1,0,0.00
2013-4-11,85,71,60,66,61,56,99,73,46,29.80,29.57,3,1,0,0.00
2013-4-12,85,72,62,69,58,38,99,68,28,29.65,29.46,5,2,0,0.34
2013-4-13,80,65,45,45,41,37,89,46,23,29.88,29.67,3,0,0,0.00
2013-4-14,78,62,44,57,45,39,90,58,27,29.95,29.84,5,1,0,0.31
2013-4-15,72,64,58,60,58,52,98,79,62,30.04,29.82,5,1,0,0.00
2013-4-16,77,66,58,62,60,57,99,80,55,30.15,30.02,3,1,0,0.00
2013-4-17,84,70,57,65,60,57,99,74,40,30.10,29.93,5,1,0,0.00
2013-4-18,81,70,62,65,61,59,95,75,48,30.01,29.83,3,1,0,0.00
2013-4-19,79,68,54,70,64,53,99,89,66,29.84,29.59,7,1,0,0.69
2013-4-20,64,53,44,53,37,28,98,58,30,30.11,29.74,5,2,0,0.00
2013-4-21,64,52,41,42,39,36,95,65,42,30.31,30.11,6,2,0,0.00
2013-4-22,64,52,40,40,33,26,84,53,25,30.27,30.04,6,2,0,0.00
2013-4-23,68,56,50,54,47,39,97,71,57,30.11,29.93,4,1,0,0.00
2013-4-24,75,62,50,58,54,49,99,79,49,29.98,29.82,5,1,0,0.00
2013-4-25,70,60,48,58,44,32,92,59,25,30.09,29.86,4,1,0,0.00
2013-4-26,73,60,44,48,38,33,83,47,25,30.27,30.09,6,2,0,0.00
2013-4-27,66,58,54,58,52,46,99,80,57,30.17,30.05,0,0,0,0.15
2013-4-28,60,56,54,59,56,54,99,99,99,30.06,29.86,4,1,0,2.10
2013-4-29,72,62,56,64,60,56,99,93,69,29.86,29.74,3,0,0,0.21
2013-4-30,72,62,56,63,60,56,99,91,70,29.97,29.78,5,1,0,0.00
2013-5-1,65,59,53,58,56,52,99,92,78,30.09,29.97,4,2,0,0.00
2013-5-2,62,58,56,60,57,56,99,97,90,30.11,30.02,5,2,0,0.08
2013-5-3,68,60,53,57,53,45,97,78,58,30.03,29.92,6,3,0,0.00
2013-5-4,63,56,48,53,48,43,93,77,65,29.94,29.80,7,4,0,0.00
2013-5-5,59,54,51,58,53,48,99,94,83,29.84,29.68,9,4,0,0.57
2013-5-6,73,62,53,63,56,49,99,83,52,29.70,29.61,8,2,0,1.14
2013-5-7,71,58,47,54,51,47,99,79,48,29.75,29.66,4,1,0,0.05
2013-5-8,75,63,51,62,56,51,99,81,50,29.82,29.72,3,0,0,0.00
2013-5-9,83,67,52,60,56,52,99,72,40,29.89,29.79,3,0,0,0.00
2013-5-10,84,71,56,64,60,55,99,71,44,29.88,29.76,4,0,0,0.00
2013-5-11,82,72,63,65,62,60,98,72,50,29.78,29.62,5,1,0,0.09
2013-5-12,76,65,54,63,51,37,99,65,35,29.85,29.63,5,1,0,0.01
2013-5-13,70,57,45,42,37,31,87,52,27,29.99,29.83,4,1,0,0.00
2013-5-14,75,59,41,47,40,33,90,53,30,30.08,29.88,5,1,0,0.00
2013-5-15,90,71,55,63,55,46,85,60,38,29.89,29.73,4,1,0,0.00
2013-5-16,84,74,63,64,60,56,85,63,40,29.84,29.73,3,0,0,0.00
2013-5-17,87,74,62,66,62,60,95,71,46,29.90,29.81,3,0,0,0.00
2013-5-18,77,69,64,68,64,61,98,85,65,29.96,29.88,3,0,0,0.02
2013-5-19,74,68,65,71,67,64,99,97,86,29.94,29.85,3,0,0,1.48
2013-5-20,84,72,66,72,68,66,99,90,60,29.94,29.82,3,0,0,0.65
2013-5-21,84,69,64,74,67,64,99,94,69,29.87,29.76,4,0,0,0.58
2013-5-22,84,74,66,71,68,62,99,83,60,29.83,29.69,3,1,0,0.08
2013-5-23,79,69,64,70,66,63,99,91,70,29.78,29.62,3,0,0,0.91
2013-5-24,72,65,52,63,52,36,99,68,29,30.00,29.66,7,2,0,0.01
2013-5-25,80,60,43,53,44,40,93,61,29,30.14,29.95,4,1,0,0.00
2013-5-26,79,64,54,54,47,42,87,56,31,30.10,29.98,3,1,0,0.00
2013-5-27,84,68,52,62,56,50,91,68,41,30.09,29.96,4,1,0,0.00
2013-5-28,86,73,63,67,64,60,94,75,50,30.06,29.95,4,1,0,0.00
2013-5-29,87,74,62,66,63,59,91,72,50,30.07,29.97,4,1,0,0.00
2013-5-30,86,73,61,67,63,60,95,75,46,30.11,29.97,4,1,0,0.00
2013-5-31,88,75,64,69,66,62,96,77,50,30.06,29.91,3,1,0,0.00
2013-6-1,87,76,67,69,67,65,94,75,50,29.96,29.83,4,1,0,0.00
2013-6-2,85,75,68,71,68,65,96,79,56,29.88,29.71,5,1,0,0.99
2013-6-3,86,73,67,73,69,65,98,88,61,29.79,29.66,4,0,0,1.19
2013-6-4,83,74,65,71,67,64,96,81,63,29.90,29.78,5,2,0,0.00
2013-6-5,80,72,68,70,67,64,96,86,72,29.94,29.79,4,1,0,0.27
2013-6-6,77,72,69,73,70,68,98,95,86,29.81,29.64,3,1,0,1.17
2013-6-8,84,73,67,73,69,66,99,88,64,29.91,29.65,3,0,0,0.00
2013-6-9,86,74,65,75,69,64,97,86,62,29.97,29.87,6,0,0,0.00
2013-6-10,81,72,68,76,71,67,98,94,81,29.90,29.70,6,1,0,1.55
2013-6-11,87,75,68,72,68,65,99,81,50,29.80,29.72,4,1,0,0.02
2013-6-12,92,78,65,77,71,63,94,79,55,29.83,29.69,3,0,0,0.00
2013-6-13,93,82,73,76,73,71,94,75,52,29.70,29.47,6,1,0,0.00
2013-6-14,84,72,60,65,60,56,98,67,43,29.83,29.61,4,1,0,0.00
2013-6-15,84,71,58,65,62,56,94,74,48,29.95,29.83,3,0,0,0.00
2013-6-16,88,75,65,70,67,62,90,77,55,29.96,29.82,3,1,0,0.00
2013-6-17,87,74,69,75,69,66,97,85,63,29.86,29.74,5,0,0,0.55
2013-6-18,84,74,69,75,71,68,99,91,69,29.80,29.58,4,1,0,0.07
2013-6-19,82,74,68,71,68,64,96,82,56,29.91,29.69,4,1,0,0.00
2013-6-20,84,73,65,68,66,64,96,81,56,30.04,29.92,6,1,0,0.00
2013-6-21,83,71,61,66,62,59,94,76,51,30.08,29.99,5,1,0,0.00
2013-6-22,83,72,64,72,67,60,93,84,64,30.05,29.91,4,1,0,0.02
2013-6-23,85,73,67,76,71,66,96,92,69,30.03,29.94,3,0,0,0.68
2013-6-24,86,74,69,78,71,68,99,92,73,30.04,29.92,4,0,0,0.00
2013-6-25,90,78,70,76,72,69,97,83,58,29.96,29.82,3,0,0,0.00
2013-6-26,90,77,70,77,71,68,96,83,58,29.85,29.73,3,1,0,0.00
2013-6-27,89,77,70,78,73,68,96,88,68,29.76,29.53,3,1,0,0.07
2013-6-28,91,79,70,77,73,68,98,84,60,29.57,29.40,9,1,0,1.65
2013-6-29,85,76,69,75,72,68,98,87,67,29.53,29.42,3,0,0,0.00
2013-6-30,84,74,66,77,72,66,98,92,74,29.65,29.51,3,0,0,0.64
2013-7-1,81,73,66,75,71,66,99,94,78,29.80,29.63,4,1,0,0.14
2013-7-2,77,72,70,75,71,70,99,97,90,29.96,29.79,4,1,0,0.73
2013-7-3,80,74,71,78,74,71,99,97,92,30.04,29.93,5,0,0,0.05
2013-7-4,87,76,72,79,74,72,99,94,65,30.07,29.96,5,1,0,0.30
2013-7-5,87,77,72,77,74,72,99,91,69,30.07,29.99,5,1,0,0.13
2013-7-6,82,74,69,79,73,69,99,97,85,30.06,29.94,3,0,0,0.27
2013-7-7,88,76,70,80,74,70,99,94,72,30.01,29.88,3,1,0,0.50
2013-7-8,86,76,71,79,74,71,99,95,77,30.01,29.91,3,0,0,0.04
2013-7-9,90,78,72,79,75,71,99,90,69,29.99,29.87,3,0,0,0.00
2013-7-10,87,77,70,78,74,70,99,91,72,29.93,29.77,3,0,0,0.00
2013-7-11,79,74,70,78,73,70,99,98,95,29.79,29.70,3,0,0,0.44
2013-7-12,80,74,70,75,72,69,99,94,82,29.82,29.68,4,1,0,0.00
2013-7-13,81,73,69,76,72,69,99,95,82,29.93,29.82,4,1,0,0.13
2013-7-14,87,76,72,77,73,72,99,91,65,30.10,29.91,6,2,0,0.19
2013-7-15,88,77,69,76,73,69,99,88,63,30.15,30.06,3,1,0,0.00
2013-7-16,93,80,70,77,73,70,99,82,53,30.13,30.02,3,0,0,0.00
2013-7-17,90,77,71,80,74,71,99,93,69,30.06,29.94,3,0,0,0.05
2013-7-18,92,80,70,80,75,70,99,87,66,29.99,29.87,3,0,0,0.00
2013-7-19,91,80,73,78,75,72,99,86,66,29.94,29.80,4,0,0,0.00
2013-7-20,86,78,73,78,75,72,99,91,77,29.86,29.73,3,0,0,0.00
2013-7-21,91,77,70,78,74,70,99,91,64,29.83,29.70,5,1,0,1.74
2013-7-22,85,75,70,77,73,70,99,95,74,29.80,29.65,4,0,0,0.02
2013-7-23,91,78,72,76,73,71,99,86,59,29.67,29.56,3,0,0,0.00
2013-7-24,91,78,69,76,72,69,99,85,55,29.68,29.54,5,1,0,1.96
2013-7-25,83,74,68,73,70,68,99,90,70,29.84,29.62,4,1,0,0.01
2013-7-26,86,74,66,73,70,66,99,87,62,29.92,29.81,4,1,0,0.00
2013-7-27,80,72,69,76,71,69,99,97,83,29.84,29.73,3,0,0,0.72
2013-7-28,87,76,69,75,72,69,99,89,65,29.81,29.72,2,0,0,0.05
2013-7-29,84,75,69,73,71,69,99,89,65,29.96,29.80,3,1,0,0.00
2013-7-30,85,74,66,73,68,64,99,83,57,30.03,29.94,3,0,0,0.00
2013-7-31,82,74,70,75,72,69,99,94,76,29.96,29.79,3,0,0,0.06
2013-8-1,86,75,70,76,73,70,99,92,71,29.81,29.68,2,0,0,0.01
2013-8-2,89,77,69,75,72,68,99,85,60,29.84,29.73,3,0,0,0.00
2013-8-3,88,78,72,78,74,72,99,87,64,29.84,29.74,3,0,0,0.00
2013-8-4,86,76,69,73,70,66,99,81,52,29.84,29.72,5,1,0,0.00
2013-8-5,86,74,68,71,69,67,99,84,60,29.89,29.78,4,0,0,0.00
2013-8-6,74,70,67,72,69,66,99,96,82,29.88,29.79,4,0,0,0.78
2013-8-7,84,76,69,75,72,69,99,89,67,29.91,29.82,3,0,0,0.00
2013-8-8,86,76,71,78,74,71,99,94,74,29.90,29.81,3,0,0,0.01
2013-8-9,89,79,72,79,75,72,99,90,71,29.89,29.81,4,0,0,0.17
2013-8-10,91,78,72,80,75,72,99,90,69,29.92,29.83,3,0,0,0.00
2013-8-11,91,79,71,79,74,70,99,88,62,29.94,29.83,0,0,0,0.00
2013-8-12,92,80,72,78,74,71,99,84,57,29.88,29.75,0,0,0,0.00
2013-8-13,89,79,71,78,74,70,99,87,68,29.78,29.60,0,0,0,0.00
2013-8-14,77,72,65,73,66,62,98,82,65,29.88,29.66,0,0,0,0.00
2013-8-15,74,67,60,63,60,58,97,80,57,29.96,29.87,5,1,0,0.00
2013-8-16,69,64,60,64,61,58,99,91,79,29.98,29.88,3,1,0,0.07
2013-8-17,67,64,61,66,63,60,99,99,92,29.98,29.92,4,1,0,0.68
2013-8-18,83,72,65,75,70,65,99,93,71,30.02,29.92,3,0,0,0.05
2013-8-19,77,71,68,73,70,67,99,98,86,29.99,29.89,3,0,0,0.57
2013-8-20,82,72,64,76,70,64,99,94,77,30.00,29.91,1,0,0,0.00
2013-8-21,83,74,70,79,73,70,99,96,80,30.04,29.92,4,0,0,0.44
2013-8-22,89,77,69,76,72,69,99,87,57,29.96,29.80,2,0,0,0.00
2013-8-23,87,76,68,75,71,68,99,87,58,29.87,29.76,4,0,0,0.00
2013-8-24,81,71,64,69,64,61,99,81,55,30.09,29.88,5,2,0,0.00
2013-8-25,79,68,59,66,62,59,99,82,54,30.20,30.09,5,1,0,0.00
2013-8-26,81,68,56,66,62,56,99,83,53,30.13,29.93,2,0,0,0.00
2013-8-27,87,74,62,74,68,62,99,85,60,29.95,29.79,0,0,0,0.00
2013-8-28,86,78,69,77,73,69,99,87,67,29.82,29.71,0,0,0,0.00
2013-8-29,90,80,73,77,74,72,99,84,61,29.80,29.69,0,0,0,0.00
2013-8-30,86,76,69,72,69,64,99,82,49,29.88,29.75,0,0,0,0.00
2013-8-31,86,75,67,77,72,67,99,93,70,29.78,29.68,0,0,0,0.22
2013-9-1,88,76,69,79,73,68,99,92,72,29.73,29.60,2,0,0,0.92
2013-9-2,87,76,70,78,74,70,99,93,70,29.73,29.62,1,0,0,0.05
2013-9-3,90,78,71,76,73,69,99,86,56,29.78,29.63,2,0,0,0.00
2013-9-4,86,74,65,72,67,62,98,79,53,29.91,29.77,3,0,0,0.00
2013-9-5,86,73,66,71,67,63,99,83,54,29.94,29.86,3,0,0,0.00
2013-9-6,84,72,64,66,63,59,93,75,49,30.00,29.88,4,1,0,0.00
2013-9-7,83,71,60,69,65,60,99,83,58,29.96,29.79,2,0,0,0.00
2013-9-8,86,74,65,71,67,65,99,81,50,29.81,29.73,3,0,0,0.00
2013-9-9,87,75,66,72,68,65,99,81,51,29.96,29.80,6,0,0,0.00
2013-9-10,88,75,66,74,69,65,99,83,55,30.06,29.95,2,0,0,0.00
2013-9-11,87,75,67,73,69,66,99,84,56,30.04,29.90,3,0,0,0.00
2013-9-12,87,76,68,74,71,67,98,85,63,29.89,29.64,0,0,0,0.00
2013-9-13,84,75,67,70,63,53,98,70,43,29.70,29.56,4,1,0,0.00
2013-9-14,75,66,57,62,55,51,94,70,56,29.91,29.70,6,1,0,0.00
2013-9-15,79,67,56,68,62,56,98,87,66,30.02,29.90,4,0,0,0.00
2013-9-16,84,75,66,72,67,60,99,79,46,29.96,29.84,3,1,0,0.00
2013-9-17,75,68,62,65,58,55,83,69,54,30.11,29.96,5,2,0,0.00
2013-9-18,73,63,55,60,55,52,95,78,54,30.11,29.97,4,1,0,0.00
2013-9-19,78,66,56,67,61,55,98,85,62,30.00,29.88,2,0,0,0.00
2013-9-20,84,71,61,70,66,61,99,86,59,29.89,29.71,2,0,0,0.00
2013-9-21,76,70,64,72,68,64,99,95,83,29.74,29.46,4,1,0,2.68
2013-9-22,76,66,58,65,60,56,99,83,52,29.70,29.47,5,2,0,0.47
2013-9-23,73,63,56,61,58,55,99,84,60,29.87,29.70,4,1,0,0.00
2013-9-24,76,64,56,62,59,55,99,86,59,29.88,29.73,3,0,0,0.00
2013-9-25,69,63,60,65,62,59,99,95,83,29.74,29.66,2,0,0,0.17
2013-9-26,74,65,58,62,59,54,99,83,54,29.83,29.67,5,1,0,0.00
2013-9-27,73,62,54,60,56,53,98,81,55,29.98,29.83,5,1,0,0.00
2013-9-28,70,60,53,57,55,53,99,83,59,30.06,29.97,5,1,0,0.00
2013-9-29,71,61,54,60,56,53,98,85,62,29.97,29.83,4,1,0,0.00
2013-9-30,74,62,52,61,57,52,99,87,58,29.92,29.80,3,0,0,0.00
2013-10-1,80,66,54,64,60,54,99,84,54,29.94,29.84,3,0,0,0.00
2013-10-2,82,68,57,66,62,57,99,84,54,29.96,29.86,3,0,0,0.00
2013-10-3,83,69,60,68,64,60,99,85,57,29.94,29.86,3,0,0,0.00
2013-10-4,84,71,61,68,65,61,99,85,56,29.95,29.86,2,0,0,0.00
2013-10-5,84,72,61,70,66,61,99,85,55,29.94,29.83,3,0,0,0.00
2013-10-6,82,70,61,70,66,60,99,88,64,29.87,29.71,2,0,0,0.02
2013-10-7,78,71,65,74,69,56,99,94,73,29.79,29.61,4,1,0,0.40
2013-10-8,65,61,58,57,51,48,79,71,65,30.00,29.79,7,2,0,0.00
2013-10-9,70,60,50,56,51,47,90,72,55,30.02,29.91,5,2,0,0.00
2013-10-10,71,62,54,63,56,49,92,82,74,29.92,29.76,4,1,0,0.00
2013-10-11,77,68,60,66,62,59,95,82,57,29.79,29.71,3,0,0,0.00
2013-10-12,74,66,57,65,62,57,99,89,69,29.88,29.75,2,0,0,0.00
2013-10-13,69,65,62,65,63,62,99,95,85,30.01,29.88,4,1,0,0.05
2013-10-14,68,63,60,64,62,60,99,95,87,30.04,29.95,3,2,0,0.02
2013-10-15,74,63,56,60,56,52,99,82,47,29.99,29.84,5,1,0,0.00
2013-10-16,74,63,53,64,59,53,99,89,68,29.88,29.74,3,0,0,0.00
2013-10-17,72,65,60,67,64,60,99,96,80,29.77,29.65,3,0,0,0.04
2013-10-18,68,62,55,66,59,54,99,90,71,29.84,29.68,4,1,0,0.00
2013-10-19,67,60,55,64,58,54,99,95,75,29.77,29.64,3,0,0,0.00
2013-10-20,64,54,47,54,47,40,99,80,47,29.92,29.72,4,1,0,0.00
2013-10-21,68,61,53,55,54,52,98,79,56,29.90,29.81,3,0,0,0.00
2013-10-22,68,60,53,61,57,53,99,93,70,29.83,29.60,2,0,0,0.00
2013-10-23,67,57,44,58,45,32,99,69,32,29.83,29.51,6,2,0,0.00
2013-10-24,59,47,35,45,37,32,95,72,42,29.99,29.83,4,1,0,0.00
2013-10-25,52,45,37,42,35,30,86,67,45,30.23,29.98,5,1,0,0.00
2013-10-26,58,43,29,38,33,28,97,71,40,30.22,29.92,4,1,0,0.00
2013-10-27,68,53,39,50,44,38,97,73,48,29.97,29.87,4,0,0,0.00
2013-10-28,68,55,47,59,52,46,99,92,68,30.09,29.94,2,0,0,0.00
2013-10-29,71,60,50,59,54,50,99,85,58,30.17,30.05,4,0,0,0.00
2013-10-30,76,61,50,60,56,50,99,85,56,30.10,29.95,2,0,0,0.00
2013-10-31,73,64,54,66,59,54,99,86,66,29.98,29.70,2,0,0,0.00
2013-11-1,68,65,58,67,63,57,99,95,89,29.70,29.46,4,1,0,0.49
2013-11-2,70,57,47,58,52,43,99,85,39,29.77,29.51,4,1,0,0.06
2013-11-3,60,49,38,44,39,35,99,72,40,30.15,29.77,6,1,0,0.00
2013-11-4,58,46,36,39,35,31,98,69,38,30.34,30.16,5,2,0,0.00
2013-11-5,59,48,36,49,41,32,90,77,64,30.36,30.23,5,2,0,0.00
2013-11-6,71,57,47,58,52,46,99,84,61,30.22,29.91,5,1,0,0.01
2013-11-7,70,56,45,62,49,34,99,80,46,29.92,29.74,7,1,0,0.00
2013-11-8,56,47,35,34,30,23,86,55,28,30.13,29.92,7,2,0,0.00
2013-11-9,59,45,30,41,33,28,96,66,33,30.19,30.02,3,0,0,0.00
2013-11-10,71,55,42,40,37,29,82,53,29,30.05,29.93,5,1,0,0.00
2013-11-11,59,47,35,35,31,25,85,56,33,30.19,29.99,4,1,0,0.00
2013-11-12,64,44,31,40,34,20,99,71,34,30.28,29.88,10,2,0,0.08
2013-11-13,44,33,26,24,20,15,86,61,34,30.39,30.28,6,2,0,0.00
2013-11-14,56,38,26,27,23,21,92,59,26,30.32,30.17,4,0,0,0.00
2013-11-15,60,47,31,48,37,22,97,69,47,30.19,30.03,3,0,0,0.01
2013-11-16,66,55,49,59,53,48,99,94,76,30.11,30.03,3,0,0,0.00
2013-11-17,72,60,51,65,58,51,99,94,71,30.04,29.73,3,1,0,0.05
2013-11-18,76,66,53,67,51,32,99,65,31,29.80,29.64,7,2,0,0.06
2013-11-19,55,48,41,32,27,24,70,46,33,30.11,29.80,8,3,0,0.00
2013-11-20,52,44,35,36,32,28,76,62,49,30.28,30.11,7,3,0,0.00
2013-11-21,60,50,43,48,41,34,78,71,60,30.33,30.21,5,2,0,0.00
2013-11-22,70,59,51,60,53,45,95,81,69,30.22,29.93,4,1,0,0.00
2013-11-23,61,56,42,60,45,16,99,72,33,30.04,29.88,6,2,0,0.00
2013-11-24,41,34,25,23,10,2,61,38,21,30.37,30.04,10,3,0,0.00
2013-11-25,43,32,20,19,12,6,78,46,23,30.42,30.18,3,1,0,0.00
2013-11-26,47,39,32,47,33,12,99,84,34,30.17,29.42,7,2,0,2.00
2013-11-27,45,39,29,45,34,18,99,83,58,30.03,29.35,9,4,0,0.41
2013-11-28,45,31,20,25,20,16,95,68,35,30.33,30.04,4,1,0,0.00
2013-11-29,52,37,24,28,25,22,97,65,32,30.45,30.31,6,2,0,0.00
2013-11-30,47,35,28,29,25,23,85,68,44,30.49,30.22,6,2,0,0.00
2013-12-1,59,43,29,41,34,26,98,75,45,30.22,29.86,3,0,0,0.00
2013-12-2,58,45,32,41,38,31,99,80,48,29.86,29.65,4,1,0,0.00
2013-12-3,63,52,41,53,47,39,93,83,67,29.80,29.69,3,0,0,0.00
2013-12-4,64,57,52,61,56,50,99,97,87,29.93,29.78,4,0,0,0.00
2013-12-5,66,62,58,65,62,58,99,99,98,29.96,29.85,3,1,0,0.10
2013-12-6,76,69,63,67,65,62,99,88,70,29.90,29.79,6,3,0,0.00
2013-12-7,68,54,46,66,51,40,99,90,80,30.26,29.81,18,4,0,0.06
2013-12-8,45,38,34,40,36,33,99,93,77,30.26,30.12,7,3,0,0.11
2013-12-9,46,40,34,46,40,34,99,99,99,30.11,29.88,3,0,0,0.26
2013-12-10,52,45,29,50,42,25,99,89,58,30.17,29.73,7,1,0,0.27
2013-12-11,50,34,24,30,26,24,99,77,36,30.30,30.14,4,1,0,0.00
2013-12-12,47,35,27,29,23,16,93,64,29,30.27,30.12,7,1,0,0.00
2013-12-13,52,36,22,34,25,17,90,67,37,30.23,30.11,5,0,0,0.00
2013-12-14,48,40,38,47,38,29,99,89,69,30.12,29.63,12,2,0,1.24
2013-12-15,53,43,32,45,37,29,99,82,51,29.94,29.57,6,2,0,0.03
2013-12-16,57,41,28,36,32,27,98,73,40,30.03,29.93,3,0,0,0.00
2013-12-17,62,49,34,37,34,30,86,59,38,29.97,29.76,5,2,0,0.00
2013-12-18,52,41,31,30,21,12,68,47,20,30.13,29.88,6,1,0,0.00
2013-12-19,63,44,30,30,24,20,77,49,20,30.17,30.07,4,1,0,0.00
2013-12-20,65,52,42,54,46,31,98,78,57,30.09,29.98,4,1,0,0.00
2013-12-21,73,61,49,65,58,48,99,91,71,29.99,29.85,4,1,0,0.00
2013-12-22,74,67,63,70,66,62,99,97,84,29.91,29.83,6,2,0,1.22
2013-12-23,64,58,45,63,58,39,99,97,77,30.00,29.83,6,2,0,2.16
2013-12-24,47,40,29,38,28,16,80,62,40,30.29,29.98,8,3,0,0.00
2013-12-25,38,29,21,25,15,10,78,58,32,30.40,30.24,4,1,0,0.00
2013-12-26,53,39,32,28,24,20,76,57,32,30.24,30.09,4,1,0,0.00
2013-12-27,51,37,28,26,23,20,84,59,31,30.32,30.20,4,1,0,0.00
2013-12-28,56,41,26,38,28,23,96,64,33,30.26,29.95,5,1,0,0.00
2013-12-29,53,45,41,51,44,31,99,96,52,29.95,29.62,5,2,0,1.70
2013-12-30,54,44,34,47,42,34,99,92,67,29.95,29.77,2,0,0,0.00
2013-12-31,51,42,32,44,33,25,99,75,38,30.22,29.92,5,1,0,0.00
2014-1-1,51,39,30,35,30,25,93,74,44,30.24,29.99,5,0,0,0.00
2014-1-2,51,44,36,47,41,30,99,91,74,29.97,29.47,5,1,0,0.26